KCSV/CSV METAR and TAF weather

Enter ICAO airport designator
Station Type Date Time Source
KCSV METAR 2019/10/21 03:53 UTC NOAA

KCSV 210353Z AUTO 00000KT 10SM CLR 13/11 A3000 RMK AO2 SLP148 T01280111


Station Type Date Time Source
KCSV Decoded METAR 2019/10/21 03:53 UTC NOAA

CROSSVILLE MEMORIAL AIRPORT , TN, United States (KCSV) 35-57N 85-05W 570M
Oct 20, 2019 - 11:53 PM EDT / 2019.10.21 0353 UTC
Wind: Calm:0
Visibility: 10 mile(s):0
Sky conditions: clear
Temperature: 55.0 F (12.8 C)
Dew Point: 52.0 F (11.1 C)
Relative Humidity: 89%
Pressure (altimeter): 30 in. Hg (1015 hPa)
ob: KCSV 210353Z AUTO 00000KT 10SM CLR 13/11 A3000 RMK AO2 SLP148 T01280111
cycle: 4

Station Type Date Time Source
KCSV TAF 2019/10/20 19:58 UTC NOAA

TAF
AMD KCSV 201856Z 2019/2118 01004KT P6SM BKN035
FM210200 13003KT P6SM BKN100
FM211400 16012G20KT P6SM OVC040

Example: see airport list